Time;durP1;ratioP1;P1;durP2;ratioP2;P2;SDS_P1;SDS_P2;PMS_P1;PMS_P2;Temp;Humidity;BMP_temperature;BMP_pressure;BME280_temperature;BME280_humidity;BME280_pressure;Samples;Min_cycle;Max_cycle;Signal;HPM_P1;HPM_P2
2023/01/16 00:01:00;;;;;;;1.88;0.90;;;3.50;99.90;;;;;;5082598;27;20177;-81
2023/01/16 00:03:26;;;;;;;3.45;1.40;;;4.20;99.90;;;;;;5104822;27;20406;-83
2023/01/16 00:05:52;;;;;;;1.90;1.10;;;4.10;99.90;;;;;;5102280;27;20034;-82
2023/01/16 00:08:17;;;;;;;2.08;1.15;;;4.30;99.90;;;;;;5096442;27;20046;-81
2023/01/16 00:10:44;;;;;;;3.90;1.50;;;4.10;99.90;;;;;;5098202;27;20179;-81
2023/01/16 00:13:11;;;;;;;3.15;1.83;;;4.10;99.90;;;;;;5100303;27;20051;-82
2023/01/16 00:15:37;;;;;;;5.07;2.20;;;4.10;99.90;;;;;;5094900;27;20062;-83
2023/01/16 00:18:03;;;;;;;3.88;1.90;;;4.10;99.90;;;;;;5081957;27;20072;-82
2023/01/16 00:20:29;;;;;;;4.13;2.13;;;4.10;99.90;;;;;;5084653;27;20043;-82
2023/01/16 00:22:55;;;;;;;4.60;2.20;;;4.10;99.90;;;;;;5095833;27;20055;-81
2023/01/16 00:25:21;;;;;;;3.90;2.05;;;4.10;99.90;;;;;;5083205;27;20054;-82
2023/01/16 00:27:47;;;;;;;5.13;2.67;;;4.00;99.90;;;;;;5110854;27;20061;-83
2023/01/16 00:30:13;;;;;;;4.03;2.70;;;4.00;99.90;;;;;;5104650;27;20047;-80
2023/01/16 00:32:38;;;;;;;5.47;2.95;;;4.00;99.90;;;;;;5098574;27;20050;-82
2023/01/16 00:35:05;;;;;;;6.85;3.88;;;4.00;99.90;;;;;;5090312;27;20063;-83
2023/01/16 00:37:30;;;;;;;4.80;3.60;;;4.00;99.90;;;;;;5091463;27;20035;-82
2023/01/16 00:39:56;;;;;;;6.20;4.22;;;4.00;99.90;;;;;;5070992;27;20051;-82
2023/01/16 00:42:22;;;;;;;6.32;4.50;;;5.00;99.90;;;;;;5083508;27;20051;-81
2023/01/16 00:44:47;;;;;;;8.23;5.03;;;4.00;99.90;;;;;;5068706;27;20690;-81
2023/01/16 00:47:15;;;;;;;8.40;5.05;;;4.00;99.90;;;;;;5099103;27;20047;-81
2023/01/16 00:49:40;;;;;;;8.48;5.20;;;4.00;99.90;;;;;;5074019;27;20122;-81
2023/01/16 00:52:07;;;;;;;7.25;5.03;;;4.00;99.90;;;;;;5103129;27;20150;-81
2023/01/16 00:54:33;;;;;;;9.43;5.45;;;4.20;99.90;;;;;;5084524;27;20086;-81
2023/01/16 00:56:59;;;;;;;11.00;5.68;;;4.20;99.90;;;;;;5089449;27;20097;-81
2023/01/16 00:59:24;;;;;;;6.80;5.07;;;4.10;99.90;;;;;;5103927;27;20076;-82
2023/01/16 01:01:50;;;;;;;8.45;5.47;;;4.10;99.90;;;;;;5090252;27;20070;-82
2023/01/16 01:04:16;;;;;;;8.30;5.38;;;4.00;99.90;;;;;;5089026;27;20050;-81
2023/01/16 01:06:42;;;;;;;7.90;5.60;;;4.00;99.90;;;;;;5086163;27;20181;-82
2023/01/16 01:09:08;;;;;;;7.05;4.63;;;4.00;99.90;;;;;;5099802;27;20043;-83
2023/01/16 01:11:34;;;;;;;7.78;5.13;;;3.90;99.90;;;;;;5091531;27;20035;-82
2023/01/16 01:13:59;;;;;;;8.75;5.28;;;4.00;99.90;;;;;;5084013;27;20047;-80
2023/01/16 01:16:26;;;;;;;9.48;5.35;;;3.90;99.90;;;;;;5132720;27;20053;-82
2023/01/16 01:18:52;;;;;;;8.48;4.53;;;3.90;99.90;;;;;;5114873;27;20055;-82
2023/01/16 01:21:17;;;;;;;9.10;4.60;;;3.90;99.90;;;;;;5099231;27;20043;-82
2023/01/16 01:23:43;;;;;;;8.50;4.30;;;3.90;99.90;;;;;;5084170;27;20043;-82
2023/01/16 01:26:16;;;;;;;6.15;4.28;;;3.80;99.90;;;;;;5121936;27;20138;-82
2023/01/16 01:28:43;;;;;;;8.77;4.47;;;3.80;99.90;;;;;;5114449;27;20129;-81
2023/01/16 01:31:12;;;;;;;8.57;4.90;;;3.80;99.90;;;;;;5099743;27;20043;-80
2023/01/16 01:33:38;;;;;;;7.53;4.80;;;3.80;99.90;;;;;;5080407;27;20502;-83
2023/01/16 01:36:05;;;;;;;8.02;5.20;;;3.80;99.90;;;;;;5097883;27;20040;-80
2023/01/16 01:38:31;;;;;;;8.57;4.68;;;2.70;99.90;;;;;;5122372;27;20442;-79
2023/01/16 01:40:56;;;;;;;7.85;5.35;;;3.80;99.90;;;;;;5122929;27;20054;-80
2023/01/16 01:43:49;;;;;;;10.90;5.38;;;3.90;99.90;;;;;;5084127;27;20123;-81
2023/01/16 01:46:27;;;;;;;8.13;4.90;;;3.80;99.90;;;;;;5103320;27;20107;-81
2023/01/16 01:49:27;;;;;;;7.40;5.15;;;3.80;99.90;;;;;;5115311;27;20063;-81
2023/01/16 01:51:57;;;;;;;7.32;5.35;;;3.80;99.90;;;;;;5106245;27;20070;-82
2023/01/16 01:54:35;;;;;;;8.68;5.65;;;3.80;99.90;;;;;;5114213;27;20047;-80
2023/01/16 01:57:08;;;;;;;9.13;5.90;;;3.90;99.90;;;;;;5111381;27;20830;-80
2023/01/16 01:59:40;;;;;;;10.27;6.03;;;3.90;99.90;;;;;;5113867;27;20055;-80
2023/01/16 02:02:10;;;;;;;14.38;6.45;;;3.90;99.90;;;;;;5105956;27;20047;-80
2023/01/16 02:04:41;;;;;;;11.13;6.40;;;3.90;99.90;;;;;;5105911;27;20042;-81
2023/01/16 02:07:11;;;;;;;11.18;6.82;;;3.90;99.90;;;;;;5099230;27;20043;-81
2023/01/16 02:09:37;;;;;;;8.15;6.38;;;4.00;99.90;;;;;;5107190;27;20043;-80
2023/01/16 02:12:08;;;;;;;10.15;6.50;;;3.90;99.90;;;;;;5105702;27;20541;-80
2023/01/16 02:14:37;;;;;;;10.00;7.15;;;3.90;99.90;;;;;;5103737;27;20069;-81
2023/01/16 02:20:24;;;;;;;11.52;7.25;;;4.00;99.90;;;;;;5115793;27;20242;-81
2023/01/16 02:23:37;;;;;;;11.80;6.75;;;3.90;99.90;;;;;;5112760;27;20065;-80
2023/01/16 02:26:23;;;;;;;10.10;6.72;;;3.90;99.90;;;;;;5019588;28;20200;-80
2023/01/16 02:29:01;;;;;;;12.47;7.13;;;4.00;99.90;;;;;;5094640;27;20059;-82
2023/01/16 02:31:49;;;;;;;11.88;6.93;;;4.00;99.90;;;;;;5095854;27;20066;-81
2023/01/16 02:34:23;;;;;;;11.15;7.30;;;4.10;99.90;;;;;;5103103;27;20107;-81
2023/01/16 02:37:40;;;;;;;12.60;7.35;;;4.10;99.90;;;;;;5116524;27;20055;-83
2023/01/16 02:40:12;;;;;;;12.52;6.90;;;4.10;99.90;;;;;;5015894;28;20060;-82
2023/01/16 02:42:53;;;;;;;10.73;7.18;;;4.10;99.90;;;;;;5114199;27;20089;-81
2023/01/16 02:45:41;;;;;;;10.88;6.90;;;4.10;99.90;;;;;;5100857;27;20504;-81
2023/01/16 02:48:46;;;;;;;11.50;7.30;;;4.00;99.90;;;;;;5097153;27;20050;-81
2023/01/16 02:51:15;;;;;;;11.45;7.35;;;4.00;99.90;;;;;;5087674;27;20059;-83
2023/01/16 02:54:10;;;;;;;10.68;7.03;;;3.90;99.90;;;;;;5104812;27;20051;-81
2023/01/16 02:57:08;;;;;;;15.25;8.13;;;3.90;99.90;;;;;;5094582;27;20086;-80
2023/01/16 02:59:34;;;;;;;11.20;6.60;;;3.80;99.90;;;;;;5105037;27;20098;-81
2023/01/16 03:02:01;;;;;;;10.82;7.22;;;3.90;99.90;;;;;;5105061;27;20046;-82
2023/01/16 03:04:41;;;;;;;13.15;7.45;;;3.70;99.90;;;;;;5113853;27;20112;-80
2023/01/16 03:07:44;;;;;;;13.02;7.53;;;3.70;99.90;;;;;;5102834;27;20616;-80
2023/01/16 03:10:29;;;;;;;11.02;6.93;;;2.80;99.90;;;;;;5098122;27;20132;-80
2023/01/16 03:13:22;;;;;;;10.52;7.85;;;3.70;99.90;;;;;;5099919;27;20085;-81
2023/01/16 03:15:51;;;;;;;13.88;8.48;;;3.70;99.90;;;;;;5100645;27;20046;-83
2023/01/16 03:18:35;;;;;;;13.82;8.50;;;3.70;99.90;;;;;;5101788;27;20162;-81
2023/01/16 03:21:11;;;;;;;13.48;8.75;;;3.70;99.90;;;;;;5117897;27;20054;-80
2023/01/16 03:24:06;;;;;;;13.50;8.80;;;3.80;99.90;;;;;;5097828;27;20391;-81
2023/01/16 03:26:32;;;;;;;12.85;8.18;;;3.80;99.90;;;;;;5070253;27;20058;-81
2023/01/16 03:29:10;;;;;;;12.32;8.45;;;3.80;99.90;;;;;;5095257;27;20046;-81
2023/01/16 03:31:50;;;;;;;15.85;8.20;;;3.90;99.90;;;;;;5098120;27;20424;-82
2023/01/16 03:34:32;;;;;;;13.23;9.10;;;3.90;99.90;;;;;;5103396;27;20546;-81
2023/01/16 03:37:16;;;;;;;13.98;9.32;;;3.90;99.90;;;;;;5114969;27;20050;-80
2023/01/16 03:39:48;;;;;;;16.27;10.02;;;3.90;99.90;;;;;;5103390;27;20411;-81
2023/01/16 03:42:19;;;;;;;13.45;9.05;;;3.90;99.90;;;;;;5121856;27;20159;-80
2023/01/16 03:44:55;;;;;;;16.35;9.35;;;4.00;99.90;;;;;;5115043;27;20074;-80
2023/01/16 03:47:24;;;;;;;;;;;4.00;99.90;;;;;;5102376;27;20058;-81
2023/01/16 03:49:55;;;;;;;16.08;8.60;;;4.00;99.90;;;;;;5098949;27;19923;-81
2023/01/16 03:52:24;;;;;;;18.30;9.35;;;4.10;99.90;;;;;;5097668;27;20062;-80
2023/01/16 03:54:59;;;;;;;15.90;8.65;;;4.10;99.90;;;;;;5117393;27;20536;-81
2023/01/16 03:57:29;;;;;;;14.15;9.25;;;4.20;99.90;;;;;;5112563;27;20043;-81
2023/01/16 03:59:55;;;;;;;16.10;9.25;;;4.20;99.90;;;;;;5100942;27;20521;-81
2023/01/16 04:02:41;;;;;;;17.45;10.77;;;4.20;99.90;;;;;;5100664;27;20047;-80
2023/01/16 04:05:23;;;;;;;16.63;9.65;;;4.20;99.90;;;;;;5116266;27;20038;-81
2023/01/16 04:08:12;;;;;;;15.00;9.30;;;4.30;99.90;;;;;;5103854;27;20080;-82
2023/01/16 04:10:41;;;;;;;16.55;10.63;;;4.20;99.90;;;;;;5117581;27;20407;-81
2023/01/16 04:13:21;;;;;;;15.20;10.32;;;4.20;99.90;;;;;;5108981;27;20129;-81
2023/01/16 04:15:51;;;;;;;16.17;10.82;;;4.20;99.90;;;;;;5116045;27;20050;-81
2023/01/16 04:18:17;;;;;;;14.93;9.57;;;3.00;99.90;;;;;;5100871;27;20242;-80
2023/01/16 04:20:46;;;;;;;14.25;10.00;;;4.20;99.90;;;;;;5103488;27;20143;-80
2023/01/16 04:23:13;;;;;;;15.35;10.27;;;5.50;99.90;;;;;;5084987;27;20078;-81
2023/01/16 04:25:39;;;;;;;18.52;10.52;;;4.20;99.90;;;;;;5102275;27;20082;-80
2023/01/16 04:28:05;;;;;;;16.38;9.93;;;4.10;99.90;;;;;;5117101;27;20081;-80
2023/01/16 04:30:31;;;;;;;13.07;9.52;;;4.10;99.90;;;;;;5090291;27;20463;-80
2023/01/16 04:33:00;;;;;;;14.30;9.75;;;4.10;99.90;;;;;;5115407;27;20047;-82
2023/01/16 04:35:25;;;;;;;18.95;9.73;;;4.10;99.90;;;;;;5092169;27;20055;-81
2023/01/16 04:37:51;;;;;;;15.55;10.38;;;4.10;99.90;;;;;;5090457;27;20542;-80
2023/01/16 04:40:17;;;;;;;14.32;9.73;;;4.00;99.90;;;;;;5097670;27;20045;-81
2023/01/16 04:42:43;;;;;;;15.77;9.65;;;4.00;99.90;;;;;;5107745;27;20420;-81
2023/01/16 04:45:09;;;;;;;17.02;9.68;;;4.20;99.90;;;;;;5119882;27;20181;-79
2023/01/16 04:47:48;;;;;;;16.92;8.73;;;4.00;99.90;;;;;;5089087;27;20042;-81
2023/01/16 04:50:14;;;;;;;17.55;9.18;;;4.00;99.90;;;;;;5099140;27;20047;-81
2023/01/16 04:52:40;;;;;;;17.65;10.32;;;4.00;99.90;;;;;;5100139;27;20042;-80
2023/01/16 04:55:07;;;;;;;17.27;9.15;;;4.00;99.90;;;;;;5091506;27;20391;-80
2023/01/16 04:57:33;;;;;;;17.73;9.55;;;3.10;99.90;;;;;;5091644;27;20058;-80
2023/01/16 04:59:59;;;;;;;18.30;10.10;;;4.00;99.90;;;;;;5085783;27;20476;-82
2023/01/16 05:02:24;;;;;;;15.63;9.43;;;4.00;99.90;;;;;;5105592;27;20049;-81
2023/01/16 05:04:50;;;;;;;15.70;10.23;;;4.00;99.90;;;;;;5133603;27;20127;-80
2023/01/16 05:07:16;;;;;;;18.20;9.82;;;4.20;99.90;;;;;;5103354;27;20039;-79
2023/01/16 05:09:42;;;;;;;17.25;9.15;;;3.90;99.90;;;;;;5104536;27;20087;-80
2023/01/16 05:12:08;;;;;;;15.88;9.35;;;3.90;99.90;;;;;;5102336;27;20051;-81
2023/01/16 05:14:34;;;;;;;14.52;8.90;;;3.90;99.90;;;;;;5090736;27;20055;-80
2023/01/16 05:17:00;;;;;;;18.05;10.13;;;3.90;99.90;;;;;;5100149;27;20122;-80
2023/01/16 05:19:26;;;;;;;16.58;10.38;;;3.90;99.90;;;;;;5116555;27;20107;-80
2023/01/16 05:21:52;;;;;;;15.65;9.85;;;3.90;99.90;;;;;;5072980;27;20042;-80
2023/01/16 05:24:17;;;;;;;15.77;9.57;;;3.80;99.90;;;;;;5084060;27;20070;-80
2023/01/16 05:26:43;;;;;;;18.13;10.73;;;3.80;99.90;;;;;;5101906;27;20047;-81
2023/01/16 05:29:09;;;;;;;19.05;10.35;;;3.80;99.90;;;;;;5097962;27;20121;-81
2023/01/16 05:31:35;;;;;;;17.42;10.57;;;3.80;99.90;;;;;;5102630;27;20476;-81
2023/01/16 05:34:01;;;;;;;16.58;10.52;;;3.50;99.90;;;;;;5099749;27;20129;-82
2023/01/16 05:36:27;;;;;;;21.42;11.20;;;3.80;99.90;;;;;;5116878;27;20388;-80
2023/01/16 05:38:55;;;;;;;14.77;10.75;;;3.80;99.90;;;;;;5104649;27;20404;-80
2023/01/16 05:41:21;;;;;;;16.92;10.35;;;3.80;99.90;;;;;;5071459;27;20046;-80
2023/01/16 05:43:50;;;;;;;18.80;9.80;;;3.90;99.90;;;;;;5102417;27;20049;-81
2023/01/16 05:46:17;;;;;;;16.55;10.75;;;3.80;99.90;;;;;;5101061;27;20039;-80
2023/01/16 05:48:43;;;;;;;19.58;10.88;;;3.80;99.90;;;;;;5135913;27;20478;-81
2023/01/16 05:51:09;;;;;;;20.15;10.45;;;3.80;99.90;;;;;;5104542;27;20303;-81
2023/01/16 05:53:34;;;;;;;17.42;10.43;;;3.80;99.90;;;;;;5107527;27;20543;-82
2023/01/16 05:56:09;;;;;;;17.52;9.88;;;4.10;99.90;;;;;;5102849;27;20721;-82
2023/01/16 05:58:35;;;;;;;18.80;10.70;;;3.90;99.90;;;;;;5104347;27;20051;-81
2023/01/16 06:01:01;;;;;;;19.90;9.43;;;3.90;99.90;;;;;;5074731;27;20182;-83
2023/01/16 06:03:27;;;;;;;22.02;10.18;;;3.90;99.90;;;;;;5098793;27;20035;-80
2023/01/16 06:05:53;;;;;;;20.33;9.90;;;3.90;99.90;;;;;;5113897;27;20096;-80
2023/01/16 06:08:19;;;;;;;17.85;9.57;;;4.00;99.90;;;;;;5117518;27;20597;-79
2023/01/16 06:10:45;;;;;;;18.15;9.75;;;3.90;99.90;;;;;;5087271;27;20106;-81
2023/01/16 06:13:11;;;;;;;16.35;10.18;;;3.90;99.90;;;;;;5099590;27;20039;-80
2023/01/16 06:15:37;;;;;;;16.73;9.60;;;3.90;99.90;;;;;;5097655;27;20051;-79
2023/01/16 06:18:03;;;;;;;19.10;10.68;;;3.90;99.90;;;;;;5098894;27;20050;-81
2023/01/16 06:20:28;;;;;;;20.70;10.48;;;3.90;99.90;;;;;;5100167;27;20077;-79
2023/01/16 06:22:56;;;;;;;21.67;12.25;;;3.90;99.90;;;;;;5115693;27;20057;-81
2023/01/16 06:25:22;;;;;;;17.98;10.68;;;4.00;99.90;;;;;;5112747;27;20058;-79
2023/01/16 06:27:49;;;;;;;22.65;11.73;;;3.90;99.90;;;;;;5088898;27;20065;-80
2023/01/16 06:30:15;;;;;;;20.90;11.65;;;4.00;99.90;;;;;;5099790;27;20488;-81
2023/01/16 06:32:41;;;;;;;21.73;11.20;;;4.00;99.90;;;;;;5086255;27;20046;-80
2023/01/16 06:35:10;;;;;;;18.10;10.82;;;3.90;99.90;;;;;;5084555;27;20046;-79
2023/01/16 06:37:35;;;;;;;20.73;11.30;;;3.90;99.90;;;;;;5083807;27;20054;-78
2023/01/16 06:40:01;;;;;;;17.88;11.18;;;3.90;99.90;;;;;;5097986;27;20056;-83
2023/01/16 06:42:27;;;;;;;17.35;10.95;;;3.90;99.90;;;;;;5104713;27;20035;-80
2023/01/16 06:44:53;;;;;;;16.75;10.90;;;3.90;99.90;;;;;;5102471;27;20091;-80
2023/01/16 06:47:20;;;;;;;16.30;9.60;;;3.80;99.90;;;;;;5086922;27;20039;-79
2023/01/16 06:49:46;;;;;;;15.85;9.38;;;3.80;99.90;;;;;;5103805;27;20125;-80
2023/01/16 06:52:11;;;;;;;19.45;9.88;;;3.70;99.90;;;;;;5102213;27;20126;-79
2023/01/16 06:54:37;;;;;;;18.75;9.38;;;4.20;99.90;;;;;;5115117;27;20050;-79
2023/01/16 06:57:03;;;;;;;14.68;8.70;;;3.60;99.90;;;;;;5100035;27;20069;-80
2023/01/16 06:59:29;;;;;;;19.33;9.65;;;3.60;99.90;;;;;;5067766;27;20172;-81
2023/01/16 07:01:54;;;;;;;11.63;8.23;;;3.50;99.90;;;;;;5105045;27;20440;-81
2023/01/16 07:04:20;;;;;;;13.77;8.90;;;3.50;99.90;;;;;;5103429;27;20593;-80
2023/01/16 07:06:48;;;;;;;15.13;8.75;;;3.40;99.90;;;;;;5096254;27;20047;-81
2023/01/16 07:09:14;;;;;;;15.50;9.23;;;3.50;99.90;;;;;;5102294;27;20043;-80
2023/01/16 07:11:40;;;;;;;14.93;7.93;;;3.40;99.90;;;;;;5084917;27;20054;-81
2023/01/16 07:22:35;;;;;;;14.73;8.43;;;3.30;99.90;;;;;;5115394;27;20043;-80
2023/01/16 07:25:21;;;;;;;16.75;8.23;;;3.30;99.90;;;;;;5101937;27;20047;-80
2023/01/16 07:27:49;;;;;;;22.88;8.13;;;3.30;99.90;;;;;;5105764;27;20407;-80
2023/01/16 07:30:20;;;;;;;13.23;7.35;;;3.30;99.90;;;;;;5106332;27;20035;-80
2023/01/16 07:32:47;;;;;;;16.10;7.65;;;3.30;99.90;;;;;;5091522;27;20054;-81
2023/01/16 07:35:13;;;;;;;12.35;7.55;;;3.50;99.90;;;;;;5115877;27;20487;-80
2023/01/16 07:37:39;;;;;;;12.25;7.30;;;3.30;99.90;;;;;;5097281;27;20050;-81
2023/01/16 07:40:06;;;;;;;12.63;7.25;;;3.30;99.90;;;;;;5098681;27;20043;-80
2023/01/16 07:42:32;;;;;;;10.45;6.60;;;3.30;99.90;;;;;;5104278;27;20520;-82
2023/01/16 07:44:57;;;;;;;11.70;6.63;;;3.30;99.90;;;;;;5100052;27;20049;-81
2023/01/16 07:47:23;;;;;;;15.40;6.63;;;3.30;99.90;;;;;;5090661;27;20051;-82
2023/01/16 07:49:49;;;;;;;11.10;6.22;;;3.00;99.90;;;;;;5095251;27;20169;-81
2023/01/16 07:52:16;;;;;;;11.82;5.90;;;3.30;99.90;;;;;;5091117;27;20507;-81
2023/01/16 07:54:43;;;;;;;11.63;6.00;;;2.30;99.90;;;;;;5096760;27;20912;-81
2023/01/16 07:57:08;;;;;;;10.93;6.03;;;3.30;99.90;;;;;;5107790;27;20096;-88
2023/01/16 07:59:34;;;;;;;11.07;5.47;;;3.30;99.90;;;;;;5094577;27;20388;-83
2023/01/16 08:02:01;;;;;;;11.75;6.18;;;3.20;99.90;;;;;;5089679;27;20057;-87
2023/01/16 08:04:30;;;;;;;9.50;5.35;;;3.30;99.90;;;;;;5100769;27;20476;-83
2023/01/16 08:07:15;;;;;;;;;;;;;;;;;;;;;
2023/01/16 08:09:42;;;;;;;11.30;5.10;;;3.30;99.90;;;;;;5118484;27;20078;-85
2023/01/16 08:12:10;;;;;;;11.88;5.53;;;;;;;;;;5101999;27;20051;-84
2023/01/16 08:14:36;;;;;;;12.27;5.15;;;3.30;99.90;;;;;;5119791;27;20043;-82
2023/01/16 08:17:05;;;;;;;11.25;5.30;;;3.50;99.90;;;;;;5100067;27;20730;-82
2023/01/16 08:19:34;;;;;;;11.77;6.13;;;3.30;99.90;;;;;;5097670;27;20103;-82
2023/01/16 08:22:03;;;;;;;11.30;5.10;;;3.40;99.90;;;;;;5119060;27;20126;-83
2023/01/16 08:24:39;;;;;;;11.13;4.85;;;4.60;99.90;;;;;;5105641;27;20039;-82
2023/01/16 08:27:14;;;;;;;10.93;5.18;;;2.70;99.90;;;;;;5107728;27;20031;-81
2023/01/16 08:29:41;;;;;;;8.97;4.40;;;3.60;99.90;;;;;;5104217;27;20086;-82
2023/01/16 08:32:09;;;;;;;11.48;4.30;;;3.40;99.90;;;;;;5102699;27;20046;-84
2023/01/16 08:34:48;;;;;;;;;;;;;;;;;;;;;
2023/01/16 08:37:25;;;;;;;10.85;5.20;;;3.40;99.90;;;;;;5093743;27;20127;-86
2023/01/16 08:40:10;;;;;;;8.50;4.55;;;3.60;99.90;;;;;;5104399;27;20031;-87
2023/01/16 08:51:22;;;;;;;11.43;4.90;;;3.50;99.90;;;;;;5116896;27;20096;-80
2023/01/16 08:53:49;;;;;;;9.55;4.00;;;3.50;99.90;;;;;;5090226;27;20043;-82
2023/01/16 08:56:14;;;;;;;9.32;4.45;;;3.50;99.90;;;;;;5108066;27;20050;-88
2023/01/16 08:58:40;;;;;;;9.45;4.43;;;3.50;99.90;;;;;;5093663;27;20054;-85
2023/01/16 09:01:09;;;;;;;11.52;4.28;;;3.70;99.90;;;;;;5105867;27;20043;-85
2023/01/16 09:03:38;;;;;;;6.38;3.30;;;3.50;99.90;;;;;;5096580;27;20069;-85
2023/01/16 09:06:09;;;;;;;12.38;3.53;;;3.60;99.90;;;;;;5107478;27;20047;-89
2023/01/16 09:08:38;;;;;;;7.50;3.33;;;3.70;99.90;;;;;;5109344;27;20246;-85
2023/01/16 09:13:51;;;;;;;7.88;3.10;;;3.60;99.90;;;;;;5121222;27;20039;-88
2023/01/16 09:16:27;;;;;;;5.50;3.13;;;3.70;99.90;;;;;;5110125;27;20122;-88
2023/01/16 09:18:55;;;;;;;7.05;2.95;;;3.80;99.90;;;;;;5096579;27;20063;-84
2023/01/16 09:21:25;;;;;;;8.32;2.97;;;3.70;99.90;;;;;;5073595;27;20039;-82
2023/01/16 09:23:52;;;;;;;7.65;2.97;;;4.60;99.90;;;;;;5114655;27;20188;-83
2023/01/16 09:26:23;;;;;;;7.22;3.50;;;3.80;99.90;;;;;;5105155;27;20039;-81
2023/01/16 09:28:49;;;;;;;6.93;3.08;;;3.80;99.90;;;;;;5102556;27;20486;-83
2023/01/16 09:31:15;;;;;;;7.22;2.97;;;3.80;99.90;;;;;;5105332;27;20050;-83
2023/01/16 09:33:41;;;;;;;6.45;3.33;;;3.90;99.90;;;;;;5069144;27;20049;-83
2023/01/16 09:36:08;;;;;;;7.90;2.95;;;3.90;99.90;;;;;;5092211;27;20066;-82
2023/01/16 09:38:34;;;;;;;7.18;3.40;;;3.80;99.90;;;;;;5102070;27;20067;-82
2023/01/16 09:41:01;;;;;;;8.13;3.60;;;3.70;99.90;;;;;;5104704;27;20451;-83
2023/01/16 09:43:38;;;;;;;7.45;3.08;;;4.00;99.90;;;;;;5127857;27;20082;-82
2023/01/16 09:46:15;;;;;;;6.10;3.20;;;3.90;99.90;;;;;;5105196;27;20038;-82
2023/01/16 09:48:41;;;;;;;6.45;3.38;;;2.70;99.90;;;;;;5107690;27;20055;-84
2023/01/16 09:51:13;;;;;;;8.13;3.10;;;4.20;99.90;;;;;;5121767;27;20047;-84
2023/01/16 09:59:28;;;;;;;6.00;3.30;;;4.10;99.90;;;;;;5116964;27;20531;-83
2023/01/16 10:02:04;;;;;;;4.90;3.63;;;3.90;99.90;;;;;;5106371;27;20051;-85
2023/01/16 10:04:29;;;;;;;7.60;3.55;;;3.90;99.90;;;;;;5098964;27;20476;-82
2023/01/16 10:07:40;;;;;;;5.20;3.50;;;3.90;99.90;;;;;;5117853;27;20042;-83
2023/01/16 10:10:44;;;;;;;7.85;3.78;;;4.00;99.90;;;;;;5106843;27;20415;-83
2023/01/16 10:13:34;;;;;;;6.45;3.17;;;4.00;99.90;;;;;;5103998;27;20053;-83
2023/01/16 10:16:19;;;;;;;7.88;3.33;;;3.90;99.90;;;;;;5101688;27;20077;-84
2023/01/16 10:19:05;;;;;;;8.93;4.20;;;4.00;99.90;;;;;;5099536;27;20062;-83
2023/01/16 10:21:55;;;;;;;7.50;3.50;;;4.00;99.90;;;;;;5102311;27;20047;-83
2023/01/16 10:24:45;;;;;;;7.65;3.80;;;4.00;99.90;;;;;;5096515;27;20082;-84
2023/01/16 10:27:36;;;;;;;6.25;3.60;;;4.00;99.90;;;;;;5115201;27;20408;-85
2023/01/16 10:30:15;;;;;;;7.30;3.67;;;4.00;99.90;;;;;;5108327;27;20043;-86
2023/01/16 10:33:03;;;;;;;7.13;3.78;;;2.50;99.90;;;;;;5113387;27;20130;-82
2023/01/16 10:35:42;;;;;;;6.95;3.13;;;4.20;99.90;;;;;;5111232;27;20126;-84
2023/01/16 10:38:42;;;;;;;7.60;3.90;;;4.10;99.90;;;;;;5103431;27;20057;-85
2023/01/16 10:50:08;;;;;;;6.55;3.28;;;2.60;99.90;;;;;;5112941;27;20095;-83
2023/01/16 10:52:35;;;;;;;6.32;3.08;;;3.70;99.90;;;;;;5065962;28;20058;-84
2023/01/16 10:55:02;;;;;;;4.05;2.25;;;3.70;99.90;;;;;;5087162;27;20051;-84
2023/01/16 10:57:31;;;;;;;3.13;2.08;;;3.80;99.90;;;;;;5081792;27;20476;-82
2023/01/16 11:00:03;;;;;;;4.53;1.80;;;3.50;99.90;;;;;;5097283;27;20484;-82
2023/01/16 11:02:42;;;;;;;3.22;1.83;;;3.50;99.90;;;;;;5098614;27;20047;-82
2023/01/16 11:05:28;;;;;;;3.33;1.92;;;3.80;99.90;;;;;;5098579;27;20525;-82
2023/01/16 11:08:09;;;;;;;3.38;1.70;;;5.10;99.90;;;;;;5097425;27;20043;-82
2023/01/16 11:10:36;;;;;;;2.40;1.40;;;3.40;99.90;;;;;;5101447;28;20043;-83
2023/01/16 11:19:30;;;;;;;2.83;1.70;;;3.50;99.90;;;;;;5111224;27;20040;-81
2023/01/16 11:22:08;;;;;;;2.30;1.30;;;3.40;99.90;;;;;;5087854;28;20444;-81
2023/01/16 11:24:38;;;;;;;2.53;1.50;;;3.30;99.90;;;;;;5099924;28;20151;-81
2023/01/16 11:27:18;;;;;;;2.38;1.48;;;3.40;99.90;;;;;;5102030;28;20544;-84
2023/01/16 11:29:54;;;;;;;2.83;1.33;;;3.40;99.90;;;;;;5101624;28;20396;-83
2023/01/16 11:32:27;;;;;;;1.90;1.30;;;3.40;99.90;;;;;;5104421;28;20043;-84
2023/01/16 11:35:01;;;;;;;3.10;1.23;;;3.40;99.90;;;;;;5103782;28;20051;-85
2023/01/16 11:37:39;;;;;;;2.10;1.50;;;3.40;99.90;;;;;;5081604;28;20145;-86
2023/01/16 11:40:06;;;;;;;2.50;1.40;;;3.40;99.90;;;;;;5086351;28;20095;-83
2023/01/16 11:46:08;;;;;;;1.95;1.33;;;4.40;99.90;;;;;;5096123;28;20047;-79
2023/01/16 11:48:40;;;;;;;2.08;1.42;;;3.50;99.90;;;;;;5095632;28;20062;-79
2023/01/16 11:51:12;;;;;;;5.60;1.50;;;3.50;99.90;;;;;;5082884;28;20039;-79
2023/01/16 11:53:37;;;;;;;2.08;1.33;;;4.10;99.90;;;;;;5113314;28;20136;-79
2023/01/16 11:56:21;;;;;;;2.40;1.08;;;1.90;99.90;;;;;;5079534;28;20476;-81
2023/01/16 11:59:18;;;;;;;2.17;1.40;;;3.50;99.90;;;;;;5096719;28;20103;-80
2023/01/16 12:04:32;;;;;;;;;;;3.40;99.90;;;;;;5113050;28;19927;-81
2023/01/16 12:07:03;;;;;;;1.60;1.10;;;3.40;99.90;;;;;;5102881;28;20383;-80
2023/01/16 12:09:44;;;;;;;1.80;1.10;;;3.40;99.90;;;;;;5112758;28;20139;-81
2023/01/16 12:15:42;;;;;;;2.85;1.27;;;3.40;99.90;;;;;;5111384;28;20051;-80
2023/01/16 12:18:23;;;;;;;2.25;1.00;;;3.30;99.90;;;;;;5093829;28;20051;-79
2023/01/16 12:20:48;;;;;;;1.38;1.10;;;3.30;99.90;;;;;;5091871;28;20485;-83
2023/01/16 12:23:32;;;;;;;1.75;1.20;;;3.30;99.90;;;;;;5093793;28;20043;-79
2023/01/16 12:26:19;;;;;;;1.83;1.30;;;3.30;99.90;;;;;;5110003;28;20096;-83
2023/01/16 12:29:07;;;;;;;2.78;1.50;;;3.30;99.90;;;;;;5100655;27;20051;-83
2023/01/16 12:31:57;;;;;;;2.78;1.38;;;3.30;99.90;;;;;;5117211;27;20124;-83
2023/01/16 12:34:47;;;;;;;1.90;1.40;;;3.30;99.90;;;;;;5104161;27;20081;-83
2023/01/16 12:37:37;;;;;;;2.83;1.60;;;3.30;99.90;;;;;;5105482;27;20047;-85
2023/01/16 12:40:32;;;;;;;2.30;1.52;;;3.30;99.90;;;;;;5124881;27;20043;-83
2023/01/16 12:43:36;;;;;;;2.47;1.50;;;3.40;99.90;;;;;;5104964;27;20054;-85
2023/01/16 12:46:15;;;;;;;2.30;1.70;;;3.40;99.90;;;;;;5103336;27;20511;-83
2023/01/16 12:48:52;;;;;;;2.20;1.60;;;3.30;99.90;;;;;;5099988;27;20043;-82
2023/01/16 12:51:52;;;;;;;2.63;1.80;;;3.30;99.90;;;;;;5103140;27;20100;-86
2023/01/16 12:54:57;;;;;;;3.65;1.92;;;3.40;99.90;;;;;;5106567;27;20073;-84
2023/01/16 12:57:47;;;;;;;2.78;1.42;;;3.50;99.90;;;;;;5099193;27;20058;-84
2023/01/16 13:00:54;;;;;;;2.60;1.80;;;3.50;99.90;;;;;;5100251;27;20047;-84
2023/01/16 13:03:43;;;;;;;2.20;1.60;;;3.40;99.90;;;;;;5102168;27;20050;-85
2023/01/16 13:06:19;;;;;;;3.78;2.00;;;3.40;99.90;;;;;;5108329;27;20043;-83
2023/01/16 13:08:59;;;;;;;2.92;1.75;;;3.40;99.90;;;;;;5101942;27;20043;-83
2023/01/16 13:14:23;;;;;;;2.50;1.80;;;3.60;99.90;;;;;;5117344;27;20062;-82
2023/01/16 13:17:04;;;;;;;3.88;2.00;;;2.70;99.90;;;;;;5099259;27;20054;-82
2023/01/16 13:19:36;;;;;;;3.30;2.13;;;3.50;99.90;;;;;;5084112;28;20055;-84
2023/01/16 13:22:33;;;;;;;3.75;2.10;;;3.40;99.90;;;;;;5093687;28;20889;-82
2023/01/16 13:25:24;;;;;;;2.88;2.03;;;3.70;99.90;;;;;;5093659;27;20044;-83
2023/01/16 13:27:58;;;;;;;3.33;1.90;;;3.50;99.90;;;;;;5078912;28;20043;-83
2023/01/16 13:30:24;;;;;;;2.75;1.92;;;3.50;99.90;;;;;;5084400;28;20043;-84
2023/01/16 13:33:08;;;;;;;3.17;1.98;;;3.50;99.90;;;;;;5079349;28;20056;-83
2023/01/16 13:36:24;;;;;;;3.45;2.15;;;3.50;99.90;;;;;;5078233;28;20044;-81
2023/01/16 13:39:12;;;;;;;3.63;2.03;;;3.60;99.90;;;;;;5064975;28;20097;-86
2023/01/16 13:41:45;;;;;;;2.63;2.20;;;3.60;99.90;;;;;;5052131;28;20048;-86
2023/01/16 13:47:39;;;;;;;3.15;2.10;;;3.60;99.90;;;;;;5089844;28;20048;-85
2023/01/16 13:50:30;;;;;;;3.10;2.50;;;4.10;99.90;;;;;;5095356;28;20048;-83
2023/01/16 13:53:07;;;;;;;4.80;2.38;;;3.60;99.90;;;;;;5065515;28;20040;-84
2023/01/16 13:55:37;;;;;;;3.28;2.28;;;3.80;99.90;;;;;;5085496;28;20043;-84
2023/01/16 13:58:26;;;;;;;3.08;2.63;;;3.60;99.90;;;;;;5097556;28;20051;-84
2023/01/16 14:01:02;;;;;;;4.32;2.50;;;3.70;99.90;;;;;;5080609;28;20099;-82
2023/01/16 14:03:33;;;;;;;3.63;2.63;;;3.70;99.90;;;;;;5079741;28;20455;-84
2023/01/16 14:06:11;;;;;;;3.22;2.30;;;3.70;99.90;;;;;;5066091;28;20285;-82
2023/01/16 14:09:04;;;;;;;2.97;2.05;;;3.70;99.90;;;;;;5080430;28;20577;-83
2023/01/16 14:11:34;;;;;;;2.50;1.77;;;3.70;99.90;;;;;;5081828;28;20036;-82
2023/01/16 14:17:11;;;;;;;2.38;1.38;;;3.70;99.90;;;;;;5097216;27;20059;-82
2023/01/16 14:19:50;;;;;;;1.65;1.30;;;3.80;99.90;;;;;;5103842;27;20066;-82
2023/01/16 14:25:17;;;;;;;1.30;0.90;;;3.70;99.90;;;;;;5113572;27;20047;-84
2023/01/16 14:27:48;;;;;;;2.60;1.30;;;3.60;99.90;;;;;;5087105;27;20153;-84
2023/01/16 14:30:25;;;;;;;1.60;0.98;;;3.60;99.90;;;;;;5114734;27;20050;-81